createdAt,value
2022-12-26T00:02:05.278Z,4.43
2022-12-26T00:04:52.149Z,5.68
2022-12-26T00:07:23.757Z,7.85
2022-12-26T00:09:54.060Z,8.05
2022-12-26T00:12:24.457Z,6.07
2022-12-26T00:14:54.678Z,8.70
2022-12-26T00:17:25.068Z,6.65
2022-12-26T00:19:58.123Z,8.60
2022-12-26T00:22:28.307Z,7.05
2022-12-26T00:24:58.540Z,6.28
2022-12-26T00:27:28.772Z,7.55
2022-12-26T00:29:59.006Z,7.60
2022-12-26T00:32:29.249Z,10.10
2022-12-26T00:35:02.055Z,3.88
2022-12-26T00:37:32.302Z,12.45
2022-12-26T00:40:02.521Z,6.10
2022-12-26T00:42:32.721Z,7.28
2022-12-26T00:45:02.980Z,7.25
2022-12-26T00:47:34.346Z,10.52
2022-12-26T00:50:14.857Z,5.15
2022-12-26T00:52:45.844Z,9.13
2022-12-26T00:55:16.347Z,7.90
2022-12-26T00:57:46.574Z,9.88
2022-12-26T01:00:18.026Z,7.85
2022-12-26T01:02:48.384Z,5.60
2022-12-26T01:05:21.533Z,3.40
2022-12-26T01:08:22.169Z,5.75
2022-12-26T01:10:44.215Z,5.50
2022-12-26T01:13:14.609Z,6.82
2022-12-26T01:15:51.450Z,9.00
2022-12-26T01:18:22.011Z,7.95
2022-12-26T01:20:55.107Z,14.02
2022-12-26T01:23:25.377Z,7.70
2022-12-26T01:26:15.720Z,11.02
2022-12-26T01:28:45.779Z,5.45
2022-12-26T01:31:16.072Z,14.73
2022-12-26T01:33:46.374Z,8.90
2022-12-26T01:36:20.025Z,10.60
2022-12-26T01:38:50.228Z,8.65
2022-12-26T01:41:20.986Z,11.02
2022-12-26T01:43:55.694Z,7.72
2022-12-26T01:46:31.186Z,12.15
2022-12-26T01:49:04.468Z,9.18
2022-12-26T01:51:41.912Z,6.97
2022-12-26T01:54:41.135Z,11.23
2022-12-26T01:57:10.389Z,6.78
2022-12-26T01:59:42.200Z,12.60
2022-12-26T02:02:13.984Z,9.68
2022-12-26T02:04:59.948Z,8.50
2022-12-26T02:07:34.717Z,10.85
2022-12-26T02:10:05.385Z,5.82
2022-12-26T02:12:39.486Z,7.40
2022-12-26T02:15:15.309Z,10.57
2022-12-26T02:17:46.423Z,7.93
2022-12-26T02:20:21.669Z,8.63
2022-12-26T02:23:32.939Z,15.43
2022-12-26T02:26:43.510Z,7.88
2022-12-26T02:29:49.045Z,5.28
2022-12-26T02:32:29.718Z,8.95
2022-12-26T02:35:07.462Z,6.00
2022-12-26T02:37:57.764Z,8.50
2022-12-26T02:40:46.566Z,13.52
2022-12-26T02:43:26.026Z,9.50
2022-12-26T02:46:20.008Z,5.60
2022-12-26T02:49:01.404Z,13.90
2022-12-26T02:51:57.398Z,8.00
2022-12-26T02:54:49.836Z,10.43
2022-12-26T02:57:35.125Z,14.60
2022-12-26T03:00:21.906Z,9.48
2022-12-26T03:03:08.224Z,11.38
2022-12-26T03:05:56.778Z,12.27
2022-12-26T03:08:44.244Z,8.70
2022-12-26T03:13:58.698Z,8.68
2022-12-26T03:16:42.114Z,7.90
2022-12-26T03:19:16.964Z,6.60
2022-12-26T03:21:50.337Z,10.68
2022-12-26T03:24:20.888Z,8.73
2022-12-26T03:26:52.570Z,8.25
2022-12-26T03:29:37.019Z,9.98
2022-12-26T03:32:09.188Z,15.10
2022-12-26T03:34:42.110Z,14.70
2022-12-26T03:37:48.251Z,10.48
2022-12-26T03:40:53.017Z,4.88
2022-12-26T03:43:51.000Z,15.13
2022-12-26T03:49:26.564Z,8.95
2022-12-26T03:52:14.778Z,6.95
2022-12-26T03:55:06.299Z,8.38
2022-12-26T03:57:54.052Z,15.77
2022-12-26T04:00:37.717Z,9.13
2022-12-26T04:03:24.446Z,11.95
2022-12-26T04:06:08.969Z,7.03
2022-12-26T04:08:59.960Z,12.68
2022-12-26T04:11:45.914Z,12.45
2022-12-26T04:14:36.040Z,10.27
2022-12-26T04:17:25.252Z,14.48
2022-12-26T04:20:04.793Z,8.93
2022-12-26T04:22:54.835Z,12.43
2022-12-26T04:25:49.658Z,6.35
2022-12-26T04:28:38.338Z,12.82
2022-12-26T04:31:29.282Z,10.80
2022-12-26T04:34:15.678Z,14.23
2022-12-26T04:37:03.215Z,7.85
2022-12-26T04:42:30.820Z,11.70
2022-12-26T04:45:05.190Z,11.07
2022-12-26T04:47:36.028Z,12.68
2022-12-26T04:50:12.304Z,10.43
2022-12-26T04:52:59.075Z,12.48
2022-12-26T04:55:30.292Z,9.63
2022-12-26T04:58:01.028Z,10.75
2022-12-26T05:00:33.913Z,9.18
2022-12-26T05:03:19.605Z,9.88
2022-12-26T05:06:03.893Z,11.73
2022-12-26T05:08:49.919Z,10.68
2022-12-26T05:11:20.217Z,7.68
2022-12-26T05:13:50.500Z,12.65
2022-12-26T05:16:41.933Z,6.70
2022-12-26T05:19:27.047Z,9.75
2022-12-26T05:22:21.435Z,6.07
2022-12-26T05:25:06.679Z,5.43
2022-12-26T05:28:07.680Z,7.85
2022-12-26T05:30:37.917Z,7.60
2022-12-26T05:33:23.075Z,9.10
2022-12-26T05:35:53.320Z,5.72
2022-12-26T05:38:23.499Z,14.57
2022-12-26T05:40:53.757Z,10.80
2022-12-26T05:43:24.282Z,6.00
2022-12-26T05:45:54.444Z,11.15
2022-12-26T05:48:27.326Z,9.23
2022-12-26T05:51:01.765Z,9.15
2022-12-26T05:53:32.887Z,11.45
2022-12-26T05:56:06.945Z,10.30
2022-12-26T05:58:37.589Z,11.30
2022-12-26T06:01:10.137Z,6.10
2022-12-26T06:03:44.071Z,7.90
2022-12-26T06:06:14.541Z,9.63
2022-12-26T06:08:44.930Z,6.22
2022-12-26T06:11:16.700Z,11.85
2022-12-26T06:13:47.613Z,9.20
2022-12-26T06:16:19.812Z,7.43
2022-12-26T06:18:52.743Z,8.90
2022-12-26T06:21:23.760Z,10.02
2022-12-26T06:23:54.025Z,8.80
2022-12-26T06:26:24.265Z,13.25
2022-12-26T06:28:55.028Z,10.75
2022-12-26T06:31:26.964Z,8.55
2022-12-26T06:34:02.199Z,7.43
2022-12-26T06:36:32.787Z,11.80
2022-12-26T06:39:03.493Z,7.03
2022-12-26T06:41:33.717Z,8.45
2022-12-26T06:44:03.886Z,14.27
2022-12-26T06:46:34.204Z,10.50
2022-12-26T06:49:08.015Z,15.73
2022-12-26T06:51:38.289Z,9.98
2022-12-26T06:54:08.724Z,8.20
2022-12-26T06:56:38.953Z,7.78
2022-12-26T06:59:09.747Z,13.32
2022-12-26T07:01:40.200Z,9.45
2022-12-26T07:04:16.108Z,7.53
2022-12-26T07:06:46.411Z,9.57
2022-12-26T07:09:19.465Z,9.50
2022-12-26T07:11:51.679Z,8.35
2022-12-26T07:14:21.913Z,7.10
2022-12-26T07:16:52.299Z,13.65
2022-12-26T07:19:25.379Z,11.68
2022-12-26T07:21:55.616Z,11.32
2022-12-26T07:24:26.062Z,11.52
2022-12-26T07:26:56.301Z,10.60
2022-12-26T07:29:26.695Z,12.10
2022-12-26T07:31:58.302Z,14.10
2022-12-26T07:34:32.169Z,7.65
2022-12-26T07:37:03.462Z,13.85
2022-12-26T07:39:33.655Z,11.68
2022-12-26T07:42:03.867Z,13.90
2022-12-26T07:44:38.804Z,15.18
2022-12-26T07:47:09.090Z,21.35
2022-12-26T07:49:41.993Z,10.80
2022-12-26T07:52:12.180Z,16.05
2022-12-26T07:54:42.416Z,10.38
2022-12-26T07:57:46.877Z,14.52
2022-12-26T08:00:03.061Z,15.95
2022-12-26T08:02:42.507Z,14.43
2022-12-26T08:05:15.635Z,14.38
2022-12-26T08:07:45.913Z,17.23
2022-12-26T08:10:16.186Z,14.15
2022-12-26T08:12:46.598Z,13.43
2022-12-26T08:15:16.847Z,12.20
2022-12-26T08:17:47.050Z,10.77
2022-12-26T08:20:20.088Z,12.35
2022-12-26T08:22:50.452Z,13.35
2022-12-26T08:25:22.062Z,11.63
2022-12-26T08:27:52.654Z,15.55
2022-12-26T08:30:22.957Z,11.35
2022-12-26T08:32:54.183Z,14.25
2022-12-26T08:35:27.141Z,14.85
2022-12-26T08:37:57.448Z,12.60
2022-12-26T08:40:42.661Z,16.05
2022-12-26T08:46:05.280Z,8.43
2022-12-26T08:48:36.204Z,10.23
2022-12-26T08:51:11.364Z,7.88
2022-12-26T08:53:41.752Z,16.02
2022-12-26T08:56:16.355Z,43.47
2022-12-26T08:58:47.664Z,21.55
2022-12-26T09:01:19.682Z,13.52
2022-12-26T09:03:50.889Z,8.35
2022-12-26T09:06:24.134Z,8.18
2022-12-26T09:08:55.170Z,6.55
2022-12-26T09:11:27.124Z,10.38
2022-12-26T09:13:58.672Z,8.45
2022-12-26T09:16:37.250Z,9.93
2022-12-26T09:19:09.184Z,12.55
2022-12-26T09:21:42.324Z,11.00
2022-12-26T09:24:15.555Z,12.10
2022-12-26T09:26:46.682Z,6.57
2022-12-26T09:29:17.253Z,7.70
2022-12-26T09:31:47.656Z,7.22
2022-12-26T09:34:17.910Z,15.55
2022-12-26T09:36:51.113Z,15.60
2022-12-26T09:39:21.354Z,19.65
2022-12-26T09:42:04.178Z,16.95
2022-12-26T09:44:46.561Z,18.73
2022-12-26T09:47:27.573Z,16.17
2022-12-26T09:50:00.799Z,9.85
2022-12-26T09:52:40.823Z,12.70
2022-12-26T09:55:39.830Z,11.75
2022-12-26T09:58:18.436Z,21.17
2022-12-26T10:00:54.196Z,13.68
2022-12-26T10:03:25.995Z,13.80
2022-12-26T10:06:12.060Z,11.68
2022-12-26T10:09:12.119Z,19.17
2022-12-26T10:11:58.054Z,23.65
2022-12-26T10:14:51.057Z,12.68
2022-12-26T10:17:27.583Z,7.15
2022-12-26T10:20:14.268Z,13.23
2022-12-26T10:23:07.668Z,16.80
2022-12-26T10:25:46.270Z,17.67
2022-12-26T10:28:21.401Z,19.10
2022-12-26T10:30:53.613Z,21.27
2022-12-26T10:33:43.183Z,31.15
2022-12-26T10:36:21.678Z,27.38
2022-12-26T10:38:55.318Z,18.08
2022-12-26T10:41:34.191Z,18.33
2022-12-26T10:44:05.007Z,11.40
2022-12-26T10:47:16.837Z,15.60
2022-12-26T10:49:48.888Z,14.13
2022-12-26T10:52:21.092Z,12.02
2022-12-26T10:55:28.680Z,24.63
2022-12-26T10:57:53.112Z,13.05
2022-12-26T11:00:25.477Z,19.85
2022-12-26T11:03:12.662Z,9.43
2022-12-26T11:08:43.944Z,11.40
2022-12-26T11:11:22.908Z,13.90
2022-12-26T11:14:02.325Z,15.65
2022-12-26T11:16:35.133Z,16.17
2022-12-26T11:19:05.833Z,9.95
2022-12-26T11:21:36.793Z,10.27
2022-12-26T11:24:22.319Z,8.25
2022-12-26T11:26:52.609Z,10.23
2022-12-26T11:29:26.351Z,10.77
2022-12-26T11:32:00.093Z,11.98
2022-12-26T11:34:35.888Z,8.93
2022-12-26T11:37:07.877Z,14.48
2022-12-26T11:39:40.495Z,13.98
2022-12-26T11:42:21.137Z,9.73
2022-12-26T11:44:57.022Z,6.28
2022-12-26T11:47:29.616Z,13.57
2022-12-26T11:50:03.407Z,13.27
2022-12-26T11:52:38.071Z,9.98
2022-12-26T11:55:28.435Z,9.05
2022-12-26T11:58:01.870Z,12.25
2022-12-26T12:00:36.068Z,13.98
2022-12-26T12:03:12.866Z,9.88
2022-12-26T12:05:51.717Z,8.57
2022-12-26T12:08:32.815Z,9.52
2022-12-26T12:11:23.471Z,12.13
2022-12-26T12:14:05.069Z,12.85
2022-12-26T12:16:47.108Z,6.53
2022-12-26T12:19:30.846Z,12.57
2022-12-26T12:22:22.745Z,9.52
2022-12-26T12:25:07.496Z,11.00
2022-12-26T12:27:44.138Z,10.20
2022-12-26T12:30:21.144Z,7.38
2022-12-26T12:35:45.091Z,8.95
2022-12-26T12:38:30.427Z,15.55
2022-12-26T12:41:11.453Z,6.57
2022-12-26T12:43:49.173Z,10.73
2022-12-26T12:46:30.108Z,8.00
2022-12-26T12:49:30.007Z,12.05
2022-12-26T12:52:12.909Z,8.35
2022-12-26T12:55:21.695Z,7.32
2022-12-26T12:57:56.461Z,5.40
2022-12-26T13:00:30.819Z,5.80
2022-12-26T13:03:06.134Z,5.03
2022-12-26T13:05:46.442Z,9.68
2022-12-26T13:08:21.740Z,9.75
2022-12-26T13:10:56.904Z,10.80
2022-12-26T13:13:31.153Z,12.40
2022-12-26T13:16:05.560Z,11.13
2022-12-26T13:18:40.590Z,8.13
2022-12-26T13:21:15.102Z,11.45
2022-12-26T13:24:01.445Z,5.30
2022-12-26T13:26:35.105Z,6.65
2022-12-26T13:29:10.256Z,7.13
2022-12-26T13:31:43.046Z,6.75
2022-12-26T13:34:18.287Z,9.10
2022-12-26T13:36:53.429Z,6.78
2022-12-26T13:39:42.762Z,8.85
2022-12-26T13:42:41.945Z,8.98
2022-12-26T13:45:49.252Z,15.25
2022-12-26T13:48:49.537Z,9.65
2022-12-26T13:51:49.568Z,12.57
2022-12-26T13:54:24.757Z,11.63
2022-12-26T13:57:29.413Z,9.52
2022-12-26T14:00:22.166Z,13.07
2022-12-26T14:03:34.115Z,14.07
2022-12-26T14:06:30.590Z,9.93
2022-12-26T14:09:31.667Z,12.32
2022-12-26T14:12:13.151Z,13.10
2022-12-26T14:15:00.413Z,12.38
2022-12-26T14:17:42.077Z,14.90
2022-12-26T14:20:26.310Z,9.35
2022-12-26T14:23:07.331Z,9.50
2022-12-26T14:25:51.578Z,15.00
2022-12-26T14:28:27.843Z,6.75
2022-12-26T14:31:17.979Z,22.85
2022-12-26T14:33:54.886Z,11.27
2022-12-26T14:36:37.604Z,10.43
2022-12-26T14:39:25.116Z,14.13
2022-12-26T14:44:57.203Z,10.20
2022-12-26T14:47:40.476Z,11.95
2022-12-26T14:50:39.525Z,9.23
2022-12-26T14:53:34.990Z,8.27
2022-12-26T14:56:06.847Z,13.77
2022-12-26T14:58:43.916Z,7.05
2022-12-26T15:01:44.331Z,11.02
2022-12-26T15:04:35.233Z,10.00
2022-12-26T15:07:37.922Z,11.20
2022-12-26T15:10:40.595Z,10.80
2022-12-26T15:13:32.796Z,12.82
2022-12-26T15:16:47.898Z,12.32
2022-12-26T15:20:02.910Z,10.10
2022-12-26T15:23:17.651Z,14.63
2022-12-26T15:26:35.087Z,12.07
2022-12-26T15:29:41.393Z,8.35
2022-12-26T15:32:17.344Z,8.90
2022-12-26T15:34:55.498Z,7.82
2022-12-26T15:37:54.514Z,9.30
2022-12-26T15:40:30.263Z,9.88
2022-12-26T15:43:21.672Z,8.48
2022-12-26T15:45:57.688Z,25.85
2022-12-26T15:48:38.769Z,34.13
2022-12-26T15:51:15.285Z,28.40
2022-12-26T15:54:03.322Z,24.33
2022-12-26T15:56:55.636Z,38.92
2022-12-26T15:59:51.312Z,40.35
2022-12-26T16:02:38.111Z,35.88
2022-12-26T16:05:43.457Z,36.30
2022-12-26T16:08:51.028Z,38.55
2022-12-26T16:11:23.871Z,50.83
2022-12-26T16:13:59.698Z,49.15
2022-12-26T16:16:33.051Z,28.67
2022-12-26T16:19:18.999Z,32.33
2022-12-26T16:22:04.578Z,23.33
2022-12-26T16:24:36.459Z,25.90
2022-12-26T16:27:09.988Z,23.85
2022-12-26T16:29:49.111Z,19.00
2022-12-26T16:32:21.842Z,28.88
2022-12-26T16:34:52.727Z,24.23
2022-12-26T16:37:25.945Z,20.20
2022-12-26T16:40:19.720Z,17.48
2022-12-26T16:43:01.143Z,27.73
2022-12-26T16:45:37.409Z,26.88
2022-12-26T16:48:10.147Z,27.50
2022-12-26T16:50:49.951Z,30.35
2022-12-26T16:53:22.614Z,24.90
2022-12-26T16:55:54.569Z,31.92
2022-12-26T16:58:27.506Z,32.45
2022-12-26T17:01:10.891Z,33.67
2022-12-26T17:03:51.596Z,28.65
2022-12-26T17:06:27.164Z,32.78
2022-12-26T17:08:58.679Z,26.05
2022-12-26T17:11:32.343Z,26.33
2022-12-26T17:14:03.952Z,25.15
2022-12-26T17:16:37.590Z,26.92
2022-12-26T17:19:20.485Z,23.65
2022-12-26T17:22:21.246Z,18.98
2022-12-26T17:24:52.582Z,19.58
2022-12-26T17:27:25.380Z,16.58
2022-12-26T17:29:58.441Z,23.00
2022-12-26T17:32:39.998Z,17.13
2022-12-26T17:35:15.792Z,22.10
2022-12-26T17:37:46.750Z,16.42
2022-12-26T17:40:25.850Z,15.98
2022-12-26T17:42:57.680Z,13.75
2022-12-26T17:45:29.951Z,18.80
2022-12-26T17:48:03.061Z,16.13
2022-12-26T17:50:35.418Z,17.85
2022-12-26T17:53:07.762Z,16.25
2022-12-26T17:55:38.350Z,18.23
2022-12-26T17:58:08.688Z,17.58
2022-12-26T18:00:39.011Z,17.88
2022-12-26T18:03:12.058Z,19.85
2022-12-26T18:05:42.608Z,16.75
2022-12-26T18:08:30.802Z,14.38
2022-12-26T18:11:01.307Z,12.88
2022-12-26T18:13:31.904Z,14.82
2022-12-26T18:16:02.741Z,13.90
2022-12-26T18:18:38.439Z,15.23
2022-12-26T18:21:15.370Z,14.20
2022-12-26T18:26:27.033Z,19.05
2022-12-26T18:28:57.830Z,21.38
2022-12-26T18:31:29.356Z,18.48
2022-12-26T18:34:02.273Z,19.73
2022-12-26T18:36:35.279Z,21.35
2022-12-26T18:39:05.866Z,34.83
2022-12-26T18:41:36.319Z,29.92
2022-12-26T18:44:06.590Z,31.33
2022-12-26T18:46:37.254Z,31.70
2022-12-26T18:49:11.620Z,30.25
2022-12-26T18:51:41.797Z,30.30
2022-12-26T18:54:12.085Z,21.70
2022-12-26T18:56:42.279Z,18.38
2022-12-26T18:59:13.877Z,21.67
2022-12-26T19:01:44.248Z,21.02
2022-12-26T19:04:18.355Z,14.57
2022-12-26T19:06:48.876Z,17.40
2022-12-26T19:09:19.936Z,20.27
2022-12-26T19:11:50.235Z,14.98
2022-12-26T19:14:25.035Z,18.63
2022-12-26T19:16:55.216Z,17.48
2022-12-26T19:19:29.861Z,16.92
2022-12-26T19:22:00.098Z,14.02
2022-12-26T19:24:30.566Z,16.10
2022-12-26T19:27:00.851Z,16.80
2022-12-26T19:29:31.604Z,18.23
2022-12-26T19:32:01.994Z,20.10
2022-12-26T19:34:34.799Z,14.70
2022-12-26T19:37:05.026Z,17.90
2022-12-26T19:39:35.317Z,19.15
2022-12-26T19:42:05.600Z,35.80
2022-12-26T19:44:35.873Z,38.45
2022-12-26T19:47:11.147Z,29.10
2022-12-26T19:49:47.437Z,24.33
2022-12-26T19:52:21.811Z,17.48
2022-12-26T19:54:58.806Z,24.80
2022-12-26T19:57:30.473Z,37.33
2022-12-26T20:00:01.754Z,27.88
2022-12-26T20:02:43.242Z,31.45
2022-12-26T20:05:17.037Z,29.98
2022-12-26T20:07:48.217Z,26.25
2022-12-26T20:10:19.324Z,24.30
2022-12-26T20:12:50.248Z,23.42
2022-12-26T20:15:22.431Z,21.20
2022-12-26T20:17:52.920Z,25.95
2022-12-26T20:20:25.828Z,27.60
2022-12-26T20:22:56.032Z,25.05
2022-12-26T20:25:26.591Z,45.80
2022-12-26T20:27:56.813Z,39.75
2022-12-26T20:30:27.038Z,39.33
2022-12-26T20:32:57.321Z,38.35
2022-12-26T20:35:31.172Z,35.78
2022-12-26T20:38:01.405Z,39.30
2022-12-26T20:40:32.030Z,37.92
2022-12-26T20:43:02.422Z,27.45
2022-12-26T20:45:32.918Z,20.80
2022-12-26T20:48:05.008Z,27.52
2022-12-26T20:50:37.869Z,19.45
2022-12-26T20:53:08.239Z,22.52
2022-12-26T20:55:39.352Z,25.27
2022-12-26T20:58:09.636Z,27.90
2022-12-26T21:00:44.872Z,28.17
2022-12-26T21:03:15.787Z,24.83
2022-12-26T21:05:48.717Z,24.75
2022-12-26T21:08:19.031Z,23.13
2022-12-26T21:10:49.584Z,23.45
2022-12-26T21:13:19.840Z,21.98
2022-12-26T21:15:50.196Z,26.45
2022-12-26T21:18:20.524Z,25.63
2022-12-26T21:20:53.419Z,28.95
2022-12-26T21:23:23.736Z,33.95
2022-12-26T21:25:53.943Z,36.65
2022-12-26T21:28:24.325Z,28.08
2022-12-26T21:30:54.650Z,31.20
2022-12-26T21:33:24.965Z,25.73
2022-12-26T21:35:57.846Z,28.02
2022-12-26T21:38:32.327Z,27.35
2022-12-26T21:41:02.545Z,34.78
2022-12-26T21:43:33.157Z,40.17
2022-12-26T21:46:08.359Z,38.13
2022-12-26T21:48:39.313Z,42.13
2022-12-26T21:51:13.553Z,40.40
2022-12-26T21:53:43.845Z,37.70
2022-12-26T21:56:13.616Z,42.60
2022-12-26T21:58:56.406Z,45.88
2022-12-26T22:01:28.439Z,44.45
2022-12-26T22:04:11.536Z,38.65
2022-12-26T22:06:45.355Z,40.08
2022-12-26T22:09:17.286Z,38.17
2022-12-26T22:12:00.273Z,34.28
2022-12-26T22:14:30.985Z,31.00
2022-12-26T22:17:01.497Z,34.85
2022-12-26T22:19:31.901Z,45.65
2022-12-26T22:22:04.786Z,34.90
2022-12-26T22:24:35.265Z,38.90
2022-12-26T22:27:05.695Z,30.10
2022-12-26T22:29:36.026Z,29.17
2022-12-26T22:32:06.534Z,35.45
2022-12-26T22:34:36.738Z,31.98
2022-12-26T22:37:09.502Z,34.55
2022-12-26T22:39:39.731Z,29.58
2022-12-26T22:42:10.010Z,34.75
2022-12-26T22:44:40.329Z,35.33
2022-12-26T22:47:10.647Z,39.83
2022-12-26T22:49:40.892Z,38.78
2022-12-26T22:52:15.969Z,36.28
2022-12-26T22:54:46.542Z,39.92
2022-12-26T22:57:16.862Z,35.72
2022-12-26T23:02:37.964Z,34.25
2022-12-26T23:05:11.928Z,34.17
2022-12-26T23:07:45.484Z,36.33
2022-12-26T23:10:22.012Z,41.80
2022-12-26T23:12:53.103Z,31.55
2022-12-26T23:15:25.858Z,32.00
2022-12-26T23:18:31.787Z,28.67
2022-12-26T23:21:20.753Z,32.30
2022-12-26T23:23:53.761Z,29.98
2022-12-26T23:26:24.019Z,21.25
2022-12-26T23:29:06.710Z,23.42
2022-12-26T23:31:37.018Z,21.75
2022-12-26T23:34:07.332Z,21.77
2022-12-26T23:36:37.554Z,26.83
2022-12-26T23:39:10.365Z,22.48
2022-12-26T23:41:40.631Z,22.60
2022-12-26T23:44:11.101Z,25.15
2022-12-26T23:46:44.620Z,20.02
2022-12-26T23:49:15.787Z,24.60
2022-12-26T23:51:46.419Z,18.35
2022-12-26T23:54:19.304Z,21.25
2022-12-26T23:56:49.561Z,19.60
2022-12-26T23:59:19.801Z,24.27
